메인 페이지
METAR-TAF:

METAR-TAF

공항 :

킹스턴, 자메이카

위도: 17-56N, 경도: 076-47W, 고도: 3m

현재 날씨관측

예보는 1 시간 3분 전, 04:00시(UTC)에 발표되었습니다.
북서3kt
온도 26°C
습도 89%
기압 1015 hPa
시정 10km 이상
고도 2000ft 상공 구름 보통
고도 3200ft 상공 구름 보통

METAR: MKJP 200400Z 32003KT 9999 SCT020 SCT032 26/24 Q1015

시각: 00:03 (05:03 UTC)

예보

예보는 5 시간 48분 전, 23:15시(UTC)에 발표되었습니다.
예보 대상 시간: 20일 00시부터 20일 24시까지 (UTC)
북북서5kt
시정 10km 이상
고도 2000ft 상공 구름 조금
고도 3200ft 상공 구름 많음
전환 중
20일 14시부터 20일 16시까지 (UTC)
10kt
고도 2200ft 상공 구름 보통
확률 40% :
일시적
20일 19시부터 20일 23시까지 (UTC)
시정: 8000m
고도 1800ft 상공 구름 보통
고도 2000ft 상공 구름 조금, 적란운.
소나기

TAF: MKJP 192315Z 2000/2024 34005KT 9999 FEW020 BKN032 BECMG 2014/2016 17010KT SCT022 PROB40 TEMPO 2019/2023 8000 SHRA SCT018 FEW020CB

4,000개 이상의 공항 관측 자료 및 예보 (METAR 및 TAF 보고).

지도상에서 검색 가능한 기상관측소가 노란 점과 빨간 점으로 표시되어 있습니다.

기상관측소 명을 보려면 표시 위로 마우스를 이동하세요.

날씨 관측과 예보를 보려면 클릭하세요.

지도 변경 : 확대하려면 엑스 표시가 있는 녹색 버튼, 축소하려면 빼기 표시가 있는 녹색 버튼, 다음 페이지의 지도를 보려면 녹색 화살표를 클릭하세요.


METAR-TAF: